createdAt,value
2023-08-11T00:01:06.707Z,1.80
2023-08-11T00:03:35.526Z,1.90
2023-08-11T00:06:03.216Z,2.00
2023-08-11T00:08:30.824Z,2.03
2023-08-11T00:10:59.836Z,2.00
2023-08-11T00:13:27.429Z,2.40
2023-08-11T00:15:56.870Z,1.80
2023-08-11T00:18:24.523Z,1.90
2023-08-11T00:20:52.398Z,2.10
2023-08-11T00:23:20.049Z,2.00
2023-08-11T00:25:47.680Z,2.30
2023-08-11T00:28:16.707Z,2.08
2023-08-11T00:30:44.302Z,2.07
2023-08-11T00:33:12.645Z,2.30
2023-08-11T00:35:42.556Z,2.22
2023-08-11T00:38:10.191Z,2.15
2023-08-11T00:40:37.955Z,2.13
2023-08-11T00:43:05.688Z,2.40
2023-08-11T00:45:35.030Z,2.55
2023-08-11T00:48:02.806Z,2.17
2023-08-11T00:50:31.108Z,2.40
2023-08-11T00:53:02.243Z,2.40
2023-08-11T00:55:29.988Z,3.13
2023-08-11T00:57:57.546Z,2.70
2023-08-11T01:00:25.978Z,2.85
2023-08-11T01:02:55.150Z,2.38
2023-08-11T01:05:23.000Z,2.67
2023-08-11T01:07:58.453Z,2.43
2023-08-11T01:10:30.029Z,2.40
2023-08-11T01:13:02.228Z,2.70
2023-08-11T01:15:32.914Z,2.50
2023-08-11T01:18:02.352Z,2.65
2023-08-11T01:20:30.120Z,2.33
2023-08-11T01:22:59.065Z,2.67
2023-08-11T01:25:28.271Z,2.83
2023-08-11T01:27:56.829Z,2.78
2023-08-11T01:30:24.438Z,2.78
2023-08-11T01:32:53.016Z,2.63
2023-08-11T01:35:33.586Z,2.65
2023-08-11T01:38:01.833Z,2.60
2023-08-11T01:40:31.119Z,2.90
2023-08-11T01:43:00.755Z,2.47
2023-08-11T01:45:29.776Z,2.50
2023-08-11T01:47:57.806Z,2.60
2023-08-11T01:50:26.073Z,2.80
2023-08-11T01:52:55.316Z,2.95
2023-08-11T01:55:24.850Z,2.72
2023-08-11T01:57:58.995Z,2.93
2023-08-11T02:00:27.748Z,2.97
2023-08-11T02:02:56.056Z,3.30
2023-08-11T02:05:25.947Z,3.10
2023-08-11T02:07:54.727Z,2.92
2023-08-11T02:10:22.522Z,3.10
2023-08-11T02:12:50.143Z,3.00
2023-08-11T02:15:20.040Z,3.10
2023-08-11T02:17:47.885Z,3.17
2023-08-11T02:20:20.082Z,3.03
2023-08-11T02:22:47.688Z,3.50
2023-08-11T02:25:16.057Z,3.00
2023-08-11T02:27:44.772Z,2.75
2023-08-11T02:30:13.441Z,3.20
2023-08-11T02:32:42.833Z,3.13
2023-08-11T02:35:11.763Z,3.00
2023-08-11T02:37:40.153Z,2.83
2023-08-11T02:40:10.354Z,3.03
2023-08-11T02:42:39.407Z,3.20
2023-08-11T02:45:10.447Z,2.95
2023-08-11T02:47:38.207Z,3.40
2023-08-11T02:50:07.859Z,3.17
2023-08-11T02:52:35.973Z,3.13
2023-08-11T02:55:03.897Z,3.20
2023-08-11T02:57:32.351Z,3.40
2023-08-11T02:59:59.893Z,3.80
2023-08-11T03:02:27.550Z,3.22
2023-08-11T03:04:55.256Z,3.60
2023-08-11T03:07:24.261Z,3.60
2023-08-11T03:09:51.832Z,3.65
2023-08-11T03:12:19.430Z,3.40
2023-08-11T03:14:46.994Z,3.58
2023-08-11T03:17:14.809Z,3.38
2023-08-11T03:19:42.629Z,3.63
2023-08-11T03:22:10.372Z,3.53
2023-08-11T03:24:39.393Z,3.30
2023-08-11T03:27:07.053Z,3.78
2023-08-11T03:29:34.622Z,3.70
2023-08-11T03:32:02.282Z,3.30
2023-08-11T03:34:29.892Z,3.80
2023-08-11T03:36:57.480Z,3.57
2023-08-11T03:39:25.116Z,3.20
2023-08-11T03:41:54.089Z,3.53
2023-08-11T03:44:21.707Z,3.50
2023-08-11T03:46:50.068Z,3.65
2023-08-11T03:49:18.262Z,3.27
2023-08-11T03:51:45.922Z,3.58
2023-08-11T03:54:13.523Z,3.38
2023-08-11T03:56:41.083Z,3.50
2023-08-11T03:59:10.023Z,3.60
2023-08-11T04:01:37.852Z,3.43
2023-08-11T04:04:05.707Z,3.58
2023-08-11T04:06:34.245Z,3.65
2023-08-11T04:09:01.835Z,3.72
2023-08-11T04:11:30.937Z,3.65
2023-08-11T04:13:58.534Z,3.57
2023-08-11T04:16:28.056Z,3.50
2023-08-11T04:18:55.737Z,3.50
2023-08-11T04:21:24.177Z,3.10
2023-08-11T04:23:51.790Z,3.63
2023-08-11T04:26:19.499Z,3.23
2023-08-11T04:28:47.292Z,3.65
2023-08-11T04:31:15.378Z,3.10
2023-08-11T04:33:44.354Z,3.20
2023-08-11T04:36:11.956Z,3.33
2023-08-11T04:38:39.625Z,3.73
2023-08-11T04:41:07.288Z,3.28
2023-08-11T04:43:34.860Z,3.50
2023-08-11T04:46:02.545Z,3.30
2023-08-11T04:48:30.143Z,3.50
2023-08-11T04:51:00.193Z,3.30
2023-08-11T04:53:27.881Z,3.55
2023-08-11T04:55:55.481Z,3.78
2023-08-11T04:58:23.058Z,3.58
2023-08-11T05:00:50.681Z,3.63
2023-08-11T05:03:18.450Z,3.67
2023-08-11T05:05:46.722Z,3.47
2023-08-11T05:08:15.890Z,3.40
2023-08-11T05:10:43.450Z,3.20
2023-08-11T05:13:11.048Z,3.78
2023-08-11T05:15:39.632Z,3.70
2023-08-11T05:18:07.208Z,3.65
2023-08-11T05:20:35.015Z,3.25
2023-08-11T05:23:02.974Z,3.97
2023-08-11T05:25:31.956Z,3.53
2023-08-11T05:27:59.539Z,3.50
2023-08-11T05:30:28.898Z,3.42
2023-08-11T05:32:57.487Z,3.90
2023-08-11T05:35:25.314Z,3.85
2023-08-11T05:37:52.901Z,3.50
2023-08-11T05:40:20.537Z,3.70
2023-08-11T05:42:49.530Z,3.45
2023-08-11T05:45:18.379Z,3.60
2023-08-11T05:47:46.484Z,3.38
2023-08-11T05:50:14.360Z,3.33
2023-08-11T05:52:41.942Z,3.90
2023-08-11T05:55:10.022Z,3.80
2023-08-11T05:57:37.622Z,3.75
2023-08-11T06:00:07.747Z,3.92
2023-08-11T06:02:35.385Z,3.83
2023-08-11T06:05:02.972Z,3.40
2023-08-11T06:07:30.847Z,3.58
2023-08-11T06:09:59.911Z,3.92
2023-08-11T06:12:29.620Z,3.67
2023-08-11T06:14:57.161Z,3.75
2023-08-11T06:17:26.171Z,3.57
2023-08-11T06:19:53.921Z,3.65
2023-08-11T06:22:21.528Z,4.03
2023-08-11T06:24:49.089Z,3.60
2023-08-11T06:27:16.729Z,3.95
2023-08-11T06:29:44.460Z,3.60
2023-08-11T06:32:12.073Z,3.83
2023-08-11T06:34:40.998Z,4.00
2023-08-11T06:37:08.785Z,3.90
2023-08-11T06:39:36.592Z,4.20
2023-08-11T06:42:04.174Z,3.67
2023-08-11T06:44:31.731Z,4.20
2023-08-11T06:46:59.289Z,3.97
2023-08-11T06:49:26.958Z,4.18
2023-08-11T06:51:55.883Z,4.30
2023-08-11T06:54:23.614Z,3.97
2023-08-11T06:56:51.262Z,4.55
2023-08-11T06:59:19.348Z,4.10
2023-08-11T07:01:46.988Z,4.32
2023-08-11T07:04:14.585Z,4.43
2023-08-11T07:06:42.219Z,4.53
2023-08-11T07:09:11.148Z,4.00
2023-08-11T07:11:38.772Z,3.88
2023-08-11T07:14:06.773Z,4.18
2023-08-11T07:16:34.360Z,4.60
2023-08-11T07:19:01.979Z,4.17
2023-08-11T07:21:29.536Z,4.25
2023-08-11T07:23:57.196Z,4.13
2023-08-11T07:26:26.180Z,4.40
2023-08-11T07:28:53.762Z,4.40
2023-08-11T07:31:21.518Z,4.10
2023-08-11T07:33:49.108Z,4.00
2023-08-11T07:36:16.717Z,4.75
2023-08-11T07:38:44.470Z,4.57
2023-08-11T07:41:12.155Z,4.13
2023-08-11T07:43:41.129Z,4.37
2023-08-11T07:46:08.828Z,4.38
2023-08-11T07:48:36.472Z,4.57
2023-08-11T07:51:04.071Z,4.32
2023-08-11T07:53:32.928Z,4.57
2023-08-11T07:56:00.533Z,4.60
2023-08-11T07:58:28.206Z,4.45
2023-08-11T08:00:57.141Z,4.32
2023-08-11T08:03:24.836Z,4.65
2023-08-11T08:05:52.535Z,4.35
2023-08-11T08:08:20.091Z,4.30
2023-08-11T08:10:47.639Z,4.65
2023-08-11T08:13:15.280Z,4.35
2023-08-11T08:15:42.870Z,4.40
2023-08-11T08:18:11.819Z,4.15
2023-08-11T08:20:39.433Z,4.60
2023-08-11T08:23:10.115Z,4.47
2023-08-11T08:25:38.943Z,4.47
2023-08-11T08:28:07.453Z,4.40
2023-08-11T08:30:35.538Z,4.20
2023-08-11T08:33:03.198Z,4.60
2023-08-11T08:35:32.188Z,4.43
2023-08-11T08:37:59.817Z,4.57
2023-08-11T08:40:27.757Z,4.07
2023-08-11T08:42:55.670Z,4.55
2023-08-11T08:45:23.613Z,4.63
2023-08-11T08:47:52.093Z,4.60
2023-08-11T08:50:21.088Z,4.72
2023-08-11T08:52:50.857Z,4.53
2023-08-11T08:55:18.489Z,4.47
2023-08-11T08:57:47.826Z,4.70
2023-08-11T09:00:15.654Z,4.15
2023-08-11T09:02:43.805Z,4.60
2023-08-11T09:05:13.134Z,4.35
2023-08-11T09:07:40.716Z,4.47
2023-08-11T09:10:10.269Z,4.43
2023-08-11T09:12:38.062Z,4.43
2023-08-11T09:15:10.286Z,4.75
2023-08-11T09:17:38.902Z,4.50
2023-08-11T09:20:08.417Z,4.38
2023-08-11T09:22:38.859Z,4.27
2023-08-11T09:25:07.437Z,4.07
2023-08-11T09:27:37.397Z,3.90
2023-08-11T09:30:05.347Z,4.55
2023-08-11T09:32:33.778Z,4.20
2023-08-11T09:35:03.541Z,4.40
2023-08-11T09:37:31.317Z,3.90
2023-08-11T09:40:01.240Z,4.25
2023-08-11T09:42:28.979Z,3.75
2023-08-11T09:44:57.922Z,3.85
2023-08-11T09:47:25.599Z,4.00
2023-08-11T09:49:53.321Z,3.80
2023-08-11T09:52:21.558Z,3.90
2023-08-11T09:54:51.148Z,4.18
2023-08-11T09:57:19.480Z,4.10
2023-08-11T09:59:48.467Z,4.70
2023-08-11T10:02:19.662Z,4.38
2023-08-11T10:04:51.922Z,4.38
2023-08-11T10:07:21.024Z,4.28
2023-08-11T10:09:50.545Z,4.82
2023-08-11T10:12:18.369Z,4.10
2023-08-11T10:14:46.145Z,4.45
2023-08-11T10:17:14.831Z,4.55
2023-08-11T10:19:44.230Z,4.40
2023-08-11T10:22:12.619Z,4.20
2023-08-11T10:24:42.125Z,4.93
2023-08-11T10:27:10.155Z,4.75
2023-08-11T10:29:38.049Z,4.32
2023-08-11T10:32:05.986Z,4.65
2023-08-11T10:34:34.438Z,4.60
2023-08-11T10:37:03.447Z,4.33
2023-08-11T10:39:31.020Z,4.53
2023-08-11T10:41:59.032Z,4.40
2023-08-11T10:44:29.174Z,4.38
2023-08-11T10:46:59.353Z,4.40
2023-08-11T10:49:34.418Z,5.03
2023-08-11T10:52:04.812Z,4.07
2023-08-11T10:54:32.471Z,3.83
2023-08-11T10:57:01.672Z,4.05
2023-08-11T10:59:31.121Z,4.00
2023-08-11T11:02:00.848Z,3.80
2023-08-11T11:04:32.767Z,4.07
2023-08-11T11:07:01.307Z,4.45
2023-08-11T11:09:30.686Z,4.05
2023-08-11T11:11:58.855Z,4.93
2023-08-11T11:14:30.195Z,4.17
2023-08-11T11:16:59.998Z,4.95
2023-08-11T11:19:28.298Z,5.32
2023-08-11T11:21:56.177Z,5.15
2023-08-11T11:24:23.766Z,4.70
2023-08-11T11:26:52.988Z,4.60
2023-08-11T11:29:24.874Z,4.85
2023-08-11T11:31:53.096Z,5.57
2023-08-11T11:34:20.754Z,5.53
2023-08-11T11:36:48.793Z,5.10
2023-08-11T11:39:16.550Z,5.10
2023-08-11T11:41:44.134Z,4.57
2023-08-11T11:44:13.251Z,4.60
2023-08-11T11:46:41.050Z,4.85
2023-08-11T11:49:19.893Z,4.80
2023-08-11T11:51:57.542Z,5.73
2023-08-11T11:54:25.115Z,5.10
2023-08-11T11:57:03.356Z,5.10
2023-08-11T11:59:33.474Z,5.03
2023-08-11T12:02:02.288Z,5.15
2023-08-11T12:04:30.468Z,3.90
2023-08-11T12:06:58.245Z,4.28
2023-08-11T12:09:25.923Z,5.10
2023-08-11T12:11:55.496Z,4.93
2023-08-11T12:14:23.314Z,4.38
2023-08-11T12:16:52.422Z,3.87
2023-08-11T12:19:20.196Z,4.20
2023-08-11T12:21:48.018Z,4.43
2023-08-11T12:24:16.062Z,4.28
2023-08-11T12:26:43.770Z,5.60
2023-08-11T12:29:11.320Z,4.80
2023-08-11T12:31:39.438Z,4.35
2023-08-11T12:34:08.373Z,4.63
2023-08-11T12:36:35.952Z,3.90
2023-08-11T12:39:04.524Z,3.70
2023-08-11T12:41:32.178Z,4.27
2023-08-11T12:43:59.790Z,4.05
2023-08-11T12:46:27.534Z,3.92
2023-08-11T12:48:55.140Z,4.18
2023-08-11T12:51:24.167Z,3.90
2023-08-11T12:53:51.795Z,3.63
2023-08-11T12:56:19.774Z,3.90
2023-08-11T12:58:47.407Z,3.47
2023-08-11T13:01:18.434Z,3.33
2023-08-11T13:03:46.334Z,3.40
2023-08-11T13:06:14.037Z,3.10
2023-08-11T13:08:43.060Z,2.92
2023-08-11T13:11:10.598Z,2.35
2023-08-11T13:13:38.173Z,2.70
2023-08-11T13:16:06.264Z,2.75
2023-08-11T13:18:33.861Z,2.70
2023-08-11T13:21:01.596Z,2.70
2023-08-11T13:23:32.416Z,2.95
2023-08-11T13:26:01.377Z,2.90
2023-08-11T13:28:29.070Z,2.92
2023-08-11T13:30:56.719Z,3.77
2023-08-11T13:33:24.281Z,2.45
2023-08-11T13:35:51.884Z,2.22
2023-08-11T13:38:19.490Z,2.45
2023-08-11T13:40:49.041Z,2.20
2023-08-11T13:43:20.427Z,2.00
2023-08-11T13:45:48.121Z,2.20
2023-08-11T13:48:17.503Z,2.10
2023-08-11T13:50:45.152Z,2.10
2023-08-11T13:53:13.089Z,2.40
2023-08-11T13:55:40.871Z,2.00
2023-08-11T13:58:08.448Z,2.15
2023-08-11T14:00:37.419Z,2.00
2023-08-11T14:03:05.258Z,2.13
2023-08-11T14:05:32.941Z,1.95
2023-08-11T14:08:00.542Z,1.87
2023-08-11T14:10:28.233Z,1.85
2023-08-11T14:12:55.824Z,2.20
2023-08-11T14:15:23.399Z,2.10
2023-08-11T14:17:52.377Z,1.90
2023-08-11T14:20:19.966Z,2.10
2023-08-11T14:22:47.658Z,2.30
2023-08-11T14:25:15.241Z,2.20
2023-08-11T14:27:42.852Z,2.55
2023-08-11T14:30:10.760Z,2.30
2023-08-11T14:32:38.505Z,2.43
2023-08-11T14:35:09.067Z,2.30
2023-08-11T14:37:36.690Z,2.30
2023-08-11T14:40:05.200Z,2.50
2023-08-11T14:42:32.859Z,2.40
2023-08-11T14:45:00.659Z,2.50
2023-08-11T14:47:28.240Z,2.60
2023-08-11T14:49:55.908Z,2.50
2023-08-11T14:52:24.841Z,2.72
2023-08-11T14:54:52.474Z,2.50
2023-08-11T14:57:20.796Z,2.40
2023-08-11T14:59:49.113Z,2.72
2023-08-11T15:02:16.719Z,2.60
2023-08-11T15:04:44.337Z,2.70
2023-08-11T15:07:11.995Z,2.80
2023-08-11T15:09:41.025Z,2.90
2023-08-11T15:12:09.916Z,2.97
2023-08-11T15:14:37.895Z,2.80
2023-08-11T15:17:05.479Z,3.10
2023-08-11T15:19:33.094Z,2.90
2023-08-11T15:22:00.716Z,2.90
2023-08-11T15:24:28.307Z,3.00
2023-08-11T15:26:57.323Z,2.95
2023-08-11T15:29:24.893Z,3.25
2023-08-11T15:31:54.713Z,3.30
2023-08-11T15:34:22.547Z,3.07
2023-08-11T15:36:50.155Z,2.80
2023-08-11T15:39:17.734Z,2.95
2023-08-11T15:41:45.317Z,3.15
2023-08-11T15:44:14.522Z,3.08
2023-08-11T15:46:42.175Z,3.40
2023-08-11T15:49:09.780Z,3.50
2023-08-11T15:51:37.412Z,2.90
2023-08-11T15:54:05.246Z,3.05
2023-08-11T15:56:32.802Z,3.55
2023-08-11T15:59:00.384Z,2.90
2023-08-11T16:01:29.401Z,3.20
2023-08-11T16:03:57.094Z,3.40
2023-08-11T16:06:24.735Z,3.13
2023-08-11T16:08:52.635Z,2.80
2023-08-11T16:11:20.249Z,3.23
2023-08-11T16:13:47.833Z,2.95
2023-08-11T16:16:15.506Z,2.70
2023-08-11T16:18:44.504Z,2.92
2023-08-11T16:21:12.088Z,2.92
2023-08-11T16:23:39.744Z,2.90
2023-08-11T16:26:07.343Z,2.70
2023-08-11T16:28:34.905Z,3.05
2023-08-11T16:31:02.530Z,2.83
2023-08-11T16:33:30.136Z,2.85
2023-08-11T16:35:59.064Z,2.90
2023-08-11T16:38:26.600Z,3.00
2023-08-11T16:40:54.508Z,2.67
2023-08-11T16:43:22.056Z,3.40
2023-08-11T16:45:49.698Z,3.17
2023-08-11T16:48:19.721Z,3.00
2023-08-11T16:50:47.637Z,2.95
2023-08-11T16:53:16.566Z,2.70
2023-08-11T16:55:44.320Z,2.90
2023-08-11T16:58:11.914Z,3.10
2023-08-11T17:00:39.524Z,3.00
2023-08-11T17:03:07.131Z,3.05
2023-08-11T17:05:35.035Z,2.70
2023-08-11T17:08:03.877Z,2.90
2023-08-11T17:10:32.864Z,2.92
2023-08-11T17:13:00.446Z,2.90
2023-08-11T17:15:28.086Z,2.67
2023-08-11T17:17:55.663Z,3.20
2023-08-11T17:20:23.368Z,3.15
2023-08-11T17:22:50.960Z,3.28
2023-08-11T17:25:18.898Z,3.00
2023-08-11T17:27:47.932Z,3.20
2023-08-11T17:30:15.715Z,3.00
2023-08-11T17:32:43.800Z,5.60
2023-08-11T17:35:11.485Z,3.03
2023-08-11T17:37:39.210Z,2.87
2023-08-11T17:40:07.782Z,2.97
2023-08-11T17:42:35.419Z,3.03
2023-08-11T17:45:04.777Z,3.10
2023-08-11T17:47:32.469Z,3.10
2023-08-11T17:50:00.150Z,3.20
2023-08-11T17:52:27.800Z,2.95
2023-08-11T17:54:55.359Z,3.00
2023-08-11T17:57:23.226Z,3.10
2023-08-11T17:59:50.862Z,2.97
2023-08-11T18:02:19.905Z,3.10
2023-08-11T18:04:47.521Z,3.13
2023-08-11T18:07:15.150Z,2.83
2023-08-11T18:09:42.714Z,3.05
2023-08-11T18:12:11.465Z,3.00
2023-08-11T18:14:44.184Z,3.40
2023-08-11T18:17:11.755Z,3.20
2023-08-11T18:19:40.672Z,3.20
2023-08-11T18:22:08.465Z,2.90
2023-08-11T18:24:36.241Z,3.38
2023-08-11T18:27:03.809Z,3.13
2023-08-11T18:29:31.435Z,3.28
2023-08-11T18:31:59.016Z,3.20
2023-08-11T18:34:26.607Z,2.92
2023-08-11T18:36:55.539Z,3.03
2023-08-11T18:39:23.147Z,3.47
2023-08-11T18:41:50.864Z,2.92
2023-08-11T18:44:19.105Z,2.95
2023-08-11T18:46:46.781Z,2.83
2023-08-11T18:49:14.403Z,2.80
2023-08-11T18:51:42.226Z,2.80
2023-08-11T18:54:11.154Z,2.55
2023-08-11T18:56:43.288Z,2.90
2023-08-11T18:59:12.013Z,2.60
2023-08-11T19:01:39.635Z,2.70
2023-08-11T19:04:08.119Z,2.60
2023-08-11T19:06:38.458Z,2.63
2023-08-11T19:09:08.519Z,2.67
2023-08-11T19:11:38.842Z,2.92
2023-08-11T19:14:08.444Z,2.80
2023-08-11T19:16:37.084Z,3.07
2023-08-11T19:19:04.807Z,3.00
2023-08-11T19:21:32.589Z,2.80
2023-08-11T19:24:00.234Z,3.10
2023-08-11T19:26:27.846Z,2.88
2023-08-11T19:28:57.180Z,2.90
2023-08-11T19:31:24.883Z,2.90
2023-08-11T19:33:52.520Z,3.40
2023-08-11T19:36:20.069Z,2.90
2023-08-11T19:38:47.633Z,3.10
2023-08-11T19:41:15.270Z,3.00
2023-08-11T19:43:42.904Z,2.80
2023-08-11T19:46:11.933Z,2.90
2023-08-11T19:48:39.488Z,2.90
2023-08-11T19:51:07.121Z,2.90
2023-08-11T19:53:34.694Z,2.70
2023-08-11T19:56:02.270Z,3.08
2023-08-11T19:58:29.862Z,2.88
2023-08-11T20:00:57.680Z,3.30
2023-08-11T20:03:26.629Z,2.95
2023-08-11T20:05:54.296Z,3.20
2023-08-11T20:08:21.856Z,3.03
2023-08-11T20:10:50.214Z,2.90
2023-08-11T20:13:18.290Z,3.13
2023-08-11T20:15:47.797Z,2.90
2023-08-11T20:18:15.588Z,2.93
2023-08-11T20:20:45.883Z,3.35
2023-08-11T20:23:13.467Z,3.13
2023-08-11T20:25:41.048Z,2.90
2023-08-11T20:28:08.795Z,3.40
2023-08-11T20:30:36.967Z,3.20
2023-08-11T20:33:04.707Z,3.00
2023-08-11T20:35:32.301Z,3.22
2023-08-11T20:38:01.280Z,3.10
2023-08-11T20:40:28.866Z,3.38
2023-08-11T20:42:56.505Z,3.17
2023-08-11T20:45:29.840Z,3.00
2023-08-11T20:47:57.702Z,3.20
2023-08-11T20:50:25.315Z,3.20
2023-08-11T20:52:52.902Z,3.47
2023-08-11T20:55:21.859Z,3.80
2023-08-11T20:57:49.802Z,3.20
2023-08-11T21:00:17.707Z,3.22
2023-08-11T21:02:45.347Z,3.42
2023-08-11T21:05:13.052Z,3.25
2023-08-11T21:07:40.627Z,3.23
2023-08-11T21:10:08.819Z,3.47
2023-08-11T21:12:37.836Z,3.38
2023-08-11T21:15:05.733Z,3.45
2023-08-11T21:17:33.389Z,3.42
2023-08-11T21:20:01.580Z,3.70
2023-08-11T21:22:29.189Z,3.63
2023-08-11T21:24:56.823Z,3.40
2023-08-11T21:27:24.466Z,3.50
2023-08-11T21:29:53.427Z,3.72
2023-08-11T21:32:23.589Z,3.37
2023-08-11T21:34:51.547Z,3.78
2023-08-11T21:37:19.158Z,3.50
2023-08-11T21:39:46.715Z,3.65
2023-08-11T21:42:14.324Z,3.65
2023-08-11T21:44:41.937Z,3.60
2023-08-11T21:47:10.956Z,3.70
2023-08-11T21:49:40.973Z,3.80
2023-08-11T21:52:10.402Z,3.50
2023-08-11T21:54:39.644Z,3.55
2023-08-11T21:57:08.706Z,3.70
2023-08-11T21:59:36.509Z,3.70
2023-08-11T22:02:04.256Z,3.90
2023-08-11T22:04:33.214Z,3.45
2023-08-11T22:07:00.804Z,3.60
2023-08-11T22:09:28.419Z,3.70
2023-08-11T22:11:56.053Z,3.67
2023-08-11T22:14:23.649Z,4.00
2023-08-11T22:16:52.197Z,4.07
2023-08-11T22:19:19.852Z,3.60
2023-08-11T22:21:48.769Z,3.77
2023-08-11T22:24:24.125Z,3.60
2023-08-11T22:26:58.453Z,3.90
2023-08-11T22:29:26.059Z,3.83
2023-08-11T22:31:53.619Z,3.70
2023-08-11T22:34:21.183Z,3.60
2023-08-11T22:36:52.153Z,3.83
2023-08-11T22:39:20.070Z,4.03
2023-08-11T22:41:47.687Z,4.00
2023-08-11T22:44:15.258Z,4.00
2023-08-11T22:46:42.840Z,3.93
2023-08-11T22:49:10.575Z,3.90
2023-08-11T22:51:38.151Z,4.07
2023-08-11T22:54:07.180Z,4.15
2023-08-11T22:56:34.801Z,4.25
2023-08-11T22:59:02.484Z,4.47
2023-08-11T23:01:30.138Z,4.10
2023-08-11T23:03:57.946Z,3.78
2023-08-11T23:06:25.580Z,4.80
2023-08-11T23:08:53.168Z,4.25
2023-08-11T23:11:22.201Z,4.57
2023-08-11T23:13:49.788Z,4.38
2023-08-11T23:16:17.560Z,4.68
2023-08-11T23:18:45.362Z,4.57
2023-08-11T23:21:12.939Z,4.55
2023-08-11T23:23:40.547Z,4.40
2023-08-11T23:26:08.284Z,4.53
2023-08-11T23:28:38.117Z,4.43
2023-08-11T23:31:05.844Z,5.10
2023-08-11T23:33:34.030Z,4.80
2023-08-11T23:36:01.625Z,4.90
2023-08-11T23:38:29.191Z,5.00
2023-08-11T23:40:56.897Z,4.03
2023-08-11T23:43:24.742Z,5.10
2023-08-11T23:45:53.708Z,5.00
2023-08-11T23:48:21.429Z,5.20
2023-08-11T23:50:49.080Z,4.90
2023-08-11T23:53:16.681Z,5.10
2023-08-11T23:55:44.326Z,5.75
2023-08-11T23:58:12.699Z,5.53
